KCLE/CLE METAR and TAF weather

Enter ICAO airport designator
Station Type Date Time Source
KCLE METAR 2022/01/23 11:51 UTC NOAA

KCLE 231151Z 22005KT 1SM -SN VV016 M04/M07 A2986 RMK AO2 SNB1059 SLP139 4/006 P0001 60001 70001 T10441067 11028 21044 56012


Station Type Date Time Source
KCLE Decoded METAR 2022/01/23 11:51 UTC NOAA

CLEVELAND-HOPKINS INTERNATIONAL , OH, United States (KCLE) 41-24N 081-51W 236M
Jan 23, 2022 - 06:51 AM EST / 2022.01.23 1151 UTC
Wind: from the SW (220 degrees) at 6 MPH (5 KT):0
Visibility: 1 mile(s):0
Sky conditions: obscured
Weather: light snow; 6 inches of snow on ground
Precipitation last hour: 0.01 inches
Temperature: 24.1 F (-4.4 C)
Windchill: 17 F (-8 C):1
Dew Point: 19.9 F (-6.7 C)
Relative Humidity: 83%
Pressure (altimeter): 29.86 in. Hg (1011 hPa)
Pressure tendency: 0.04 inches (1.2 hPa) lower than three hours ago
ob: KCLE 231151Z 22005KT 1SM -SN VV016 M04/M07 A2986 RMK AO2 SNB1059 SLP139 4/006 P0001 60001 70001 T10441067 11028 21044 56012
cycle: 12

Station Type Date Time Source
KCLE TAF 2022/01/23 12:24 UTC NOAA

TAF KCLE 231122Z 2312/2418 24010KT 3SM -SN BR OVC030
FM231300 22010KT 1SM -SN BR OVC015
TEMPO 2314/2318 1/2SM SN OVC009
FM231800 35008KT 1SM -SN BR OVC015
FM232100 36009KT 2SM -SHSN BR OVC019
FM240000 35008KT 5SM -SHSN BR OVC030
FM240200 32005KT P6SM OVC035
FM240900 20004KT P6SM OVC035

Example: see airport list